createdAt,value
2023-03-02T00:03:16.849Z,1014.3
2023-03-02T00:08:22.967Z,1014.2
2023-03-02T00:13:29.043Z,1014.2
2023-03-02T00:18:35.058Z,1014.1
2023-03-02T00:23:41.221Z,1013.9
2023-03-02T00:28:47.390Z,1013.9
2023-03-02T00:33:53.305Z,1014
2023-03-02T00:38:59.392Z,1013.9
2023-03-02T00:44:05.496Z,1013.9
2023-03-02T00:49:11.727Z,1013.8
2023-03-02T00:54:16.894Z,1013.9
2023-03-02T00:59:22.990Z,1013.9
2023-03-02T01:04:29.097Z,1013.9
2023-03-02T01:09:35.009Z,1013.8
2023-03-02T01:14:41.262Z,1013.9
2023-03-02T01:19:47.331Z,1013.8
2023-03-02T01:24:53.466Z,1013.8
2023-03-02T01:29:59.533Z,1013.7
2023-03-02T01:35:05.612Z,1013.6
2023-03-02T01:40:11.790Z,1013.5
2023-03-02T01:45:17.774Z,1013.6
2023-03-02T01:50:23.908Z,1013.6
2023-03-02T01:55:30.057Z,1013.5
2023-03-02T02:00:35.212Z,1013.5
2023-03-02T02:05:41.274Z,1013.5
2023-03-02T02:10:47.369Z,1013.5
2023-03-02T02:15:53.386Z,1013.4
2023-03-02T02:20:59.534Z,1013.4
2023-03-02T02:26:05.664Z,1013.3
2023-03-02T02:31:11.679Z,1013.4
2023-03-02T02:36:17.750Z,1013.4
2023-03-02T02:41:23.875Z,1013.2
2023-03-02T02:46:29.874Z,1013.3
2023-03-02T02:51:35.977Z,1013.3
2023-03-02T02:56:42.063Z,1013.2
2023-03-02T03:01:48.155Z,1013.1
2023-03-02T03:06:53.290Z,1013.1
2023-03-02T03:11:59.379Z,1013.1
2023-03-02T03:17:05.457Z,1013.1
2023-03-02T03:22:11.570Z,1013.2
2023-03-02T03:27:17.674Z,1013.1
2023-03-02T03:32:23.749Z,1013.1
2023-03-02T03:37:29.837Z,1013.1
2023-03-02T03:42:35.938Z,1013
2023-03-02T03:47:42.039Z,1013.1
2023-03-02T03:52:48.119Z,1013
2023-03-02T03:57:54.211Z,1013.1
2023-03-02T04:03:00.335Z,1013.2
2023-03-02T04:08:06.427Z,1013
2023-03-02T04:13:11.540Z,1013.1
2023-03-02T04:18:17.661Z,1013.1
2023-03-02T04:23:23.720Z,1013.1
2023-03-02T04:28:29.830Z,1013
2023-03-02T04:33:35.931Z,1013
2023-03-02T04:38:42.033Z,1013
2023-03-02T04:43:48.117Z,1013.1
2023-03-02T04:48:54.224Z,1013.1
2023-03-02T04:54:00.321Z,1013.1
2023-03-02T04:59:06.416Z,1013.2
2023-03-02T05:04:12.509Z,1013.2
2023-03-02T05:09:18.653Z,1013.1
2023-03-02T05:14:24.719Z,1013.1
2023-03-02T05:19:29.830Z,1013.1
2023-03-02T05:24:35.916Z,1013.1
2023-03-02T05:29:42.015Z,1013.1
2023-03-02T05:34:48.111Z,1013
2023-03-02T05:39:54.204Z,1013
2023-03-02T05:45:00.294Z,1013
2023-03-02T05:50:05.427Z,1013
2023-03-02T05:55:11.558Z,1013
2023-03-02T06:00:17.621Z,1013.1
2023-03-02T06:05:23.714Z,1013.1
2023-03-02T06:10:29.826Z,1013
2023-03-02T06:15:35.953Z,1013.2
2023-03-02T06:20:42.005Z,1013.2
2023-03-02T06:25:48.104Z,1013.2
2023-03-02T06:30:54.245Z,1013.3
2023-03-02T06:36:00.299Z,1013.3
2023-03-02T06:41:06.430Z,1013.2
2023-03-02T06:46:12.547Z,1013.3
2023-03-02T06:51:18.613Z,1013.3
2023-03-02T06:56:23.875Z,1013.3
2023-03-02T07:01:29.793Z,1013.3
2023-03-02T07:06:35.900Z,1013.3
2023-03-02T07:11:42.046Z,1013.3
2023-03-02T07:16:48.148Z,1013.4
2023-03-02T07:21:54.235Z,1013.4
2023-03-02T07:27:00.292Z,1013.4
2023-03-02T07:32:06.404Z,1013.4
2023-03-02T07:37:12.489Z,1013.3
2023-03-02T07:42:18.583Z,1013.3
2023-03-02T07:47:24.688Z,1013.3
2023-03-02T07:52:30.795Z,1013.4
2023-03-02T07:57:36.875Z,1013.3
2023-03-02T08:02:42.011Z,1013.4
2023-03-02T08:07:48.180Z,1013.3
2023-03-02T08:12:54.216Z,1013.4
2023-03-02T08:18:00.293Z,1013.3
2023-03-02T08:23:06.383Z,1013.3
2023-03-02T08:28:12.551Z,1013.3
2023-03-02T08:33:18.582Z,1013.3
2023-03-02T08:38:24.689Z,1013.3
2023-03-02T08:43:30.789Z,1013.2
2023-03-02T08:48:36.884Z,1013.2
2023-03-02T08:53:43.035Z,1013.1
2023-03-02T08:58:49.119Z,1013
2023-03-02T09:03:55.142Z,1013
2023-03-02T09:09:00.292Z,1012.9
2023-03-02T09:14:06.369Z,1012.9
2023-03-02T09:19:12.537Z,1012.9
2023-03-02T09:24:18.568Z,1012.9
2023-03-02T09:29:24.659Z,1012.9
2023-03-02T09:34:30.764Z,1012.9
2023-03-02T09:39:36.933Z,1012.8
2023-03-02T09:44:42.984Z,1012.8
2023-03-02T09:49:49.026Z,1012.8
2023-03-02T09:54:55.167Z,1012.8
2023-03-02T10:00:01.307Z,1012.8
2023-03-02T10:05:07.400Z,1012.9
2023-03-02T10:10:13.512Z,1012.8
2023-03-02T10:15:18.653Z,1012.8
2023-03-02T10:20:24.690Z,1012.8
2023-03-02T10:25:30.761Z,1012.8
2023-03-02T10:30:36.885Z,1012.8
2023-03-02T10:35:42.946Z,1012.7
2023-03-02T10:40:49.134Z,1012.7
2023-03-02T10:45:55.146Z,1012.7
2023-03-02T10:51:01.241Z,1012.6
2023-03-02T10:56:07.349Z,1012.6
2023-03-02T11:01:13.441Z,1012.5
2023-03-02T11:06:19.534Z,1012.4
2023-03-02T11:11:25.753Z,1012.4
2023-03-02T11:16:31.721Z,1012.2
2023-03-02T11:21:36.818Z,1012.1
2023-03-02T11:26:42.925Z,1012.1
2023-03-02T11:31:49.027Z,1012
2023-03-02T11:36:55.128Z,1012
2023-03-02T11:42:01.212Z,1011.9
2023-03-02T11:47:07.315Z,1011.8
2023-03-02T11:52:13.501Z,1011.8
2023-03-02T11:57:19.582Z,1011.7
2023-03-02T12:02:25.772Z,1011.6
2023-03-02T12:07:31.937Z,1011.5
2023-03-02T12:12:37.792Z,1011.5
2023-03-02T12:17:44.088Z,1011.5
2023-03-02T12:22:50.233Z,1011.5
2023-03-02T12:27:55.141Z,1011.4
2023-03-02T12:33:01.400Z,1011.3
2023-03-02T12:38:07.485Z,1011.2
2023-03-02T12:43:13.549Z,1011
2023-03-02T12:48:19.854Z,1011
2023-03-02T12:53:25.657Z,1011
2023-03-02T12:58:31.760Z,1010.9
2023-03-02T13:03:37.935Z,1010.8
2023-03-02T13:08:43.865Z,1010.8
2023-03-02T13:13:50.023Z,1010.7
2023-03-02T13:18:56.207Z,1010.7
2023-03-02T13:24:02.142Z,1010.7
2023-03-02T13:29:08.330Z,1010.6
2023-03-02T13:34:13.363Z,1010.5
2023-03-02T13:39:19.443Z,1010.5
2023-03-02T13:44:25.593Z,1010.5
2023-03-02T13:49:31.631Z,1010.5
2023-03-02T13:54:37.727Z,1010.4
2023-03-02T13:59:43.819Z,1010.3
2023-03-02T14:04:49.938Z,1010.2
2023-03-02T14:09:56.071Z,1010.2
2023-03-02T14:15:02.167Z,1010.1
2023-03-02T14:20:08.270Z,1010
2023-03-02T14:25:14.293Z,1009.9
2023-03-02T14:30:20.408Z,1009.9
2023-03-02T14:35:26.671Z,1010
2023-03-02T14:40:31.765Z,1009.9
2023-03-02T14:45:37.714Z,1009.8
2023-03-02T14:50:43.783Z,1009.8
2023-03-02T14:55:50.079Z,1009.8
2023-03-02T15:00:55.991Z,1009.8
2023-03-02T15:06:02.264Z,1009.8
2023-03-02T15:11:08.178Z,1009.8
2023-03-02T15:16:14.286Z,1009.8
2023-03-02T15:21:20.375Z,1009.8
2023-03-02T15:26:26.472Z,1009.8
2023-03-02T15:31:32.558Z,1009.8
2023-03-02T15:36:38.734Z,1009.8
2023-03-02T15:41:44.869Z,1009.8
2023-03-02T15:46:49.859Z,1009.8
2023-03-02T15:51:56.001Z,1009.8
2023-03-02T15:57:02.062Z,1009.7
2023-03-02T16:02:08.307Z,1009.8
2023-03-02T16:07:14.237Z,1009.7
2023-03-02T16:12:20.408Z,1009.8
2023-03-02T16:17:26.446Z,1009.8
2023-03-02T16:22:32.665Z,1009.8
2023-03-02T16:27:38.641Z,1009.9
2023-03-02T16:32:44.727Z,1009.9
2023-03-02T16:37:51.020Z,1010
2023-03-02T16:42:57.167Z,1010
2023-03-02T16:48:03.019Z,1009.9
2023-03-02T16:53:08.203Z,1010
2023-03-02T16:58:14.233Z,1010.1
2023-03-02T17:03:20.334Z,1010.1
2023-03-02T17:08:26.408Z,1010.2
2023-03-02T17:13:32.503Z,1010.3
2023-03-02T17:18:38.623Z,1010.3
2023-03-02T17:23:44.715Z,1010.4
2023-03-02T17:28:50.815Z,1010.5
2023-03-02T17:33:56.906Z,1010.5
2023-03-02T17:39:03.001Z,1010.7
2023-03-02T17:44:09.093Z,1010.7
2023-03-02T17:49:15.189Z,1010.8
2023-03-02T17:54:21.348Z,1010.8
2023-03-02T17:59:26.425Z,1010.9
2023-03-02T18:04:32.520Z,1011
2023-03-02T18:09:38.611Z,1011
2023-03-02T18:14:44.696Z,1011
2023-03-02T18:19:50.818Z,1011.1
2023-03-02T18:24:56.901Z,1011.1
2023-03-02T18:30:03.023Z,1011.2
2023-03-02T18:35:09.136Z,1011.3
2023-03-02T18:40:15.211Z,1011.4
2023-03-02T18:45:21.308Z,1011.4
2023-03-02T18:50:27.411Z,1011.4
2023-03-02T18:55:33.512Z,1011.5
2023-03-02T19:00:39.602Z,1011.5
2023-03-02T19:05:44.732Z,1011.5
2023-03-02T19:10:50.829Z,1011.6
2023-03-02T19:15:57.030Z,1011.7
2023-03-02T19:21:03.149Z,1011.7
2023-03-02T19:26:09.280Z,1011.7
2023-03-02T19:31:15.345Z,1011.7
2023-03-02T19:36:21.378Z,1011.7
2023-03-02T19:41:27.486Z,1011.8
2023-03-02T19:46:33.525Z,1011.9
2023-03-02T19:51:39.630Z,1011.9
2023-03-02T19:56:45.733Z,1011.9
2023-03-02T20:01:51.824Z,1011.9
2023-03-02T20:06:57.935Z,1012
2023-03-02T20:12:03.080Z,1012
2023-03-02T20:17:09.163Z,1012.1
2023-03-02T20:22:15.219Z,1011.9
2023-03-02T20:27:21.328Z,1011.9
2023-03-02T20:32:27.410Z,1011.9
2023-03-02T20:37:33.513Z,1012
2023-03-02T20:42:39.614Z,1012
2023-03-02T20:47:45.760Z,1012
2023-03-02T20:57:57.951Z,1011.9
2023-03-02T21:03:04.027Z,1012
2023-03-02T21:08:10.133Z,1011.9
2023-03-02T21:13:16.261Z,1012
2023-03-02T21:18:21.392Z,1011.9
2023-03-02T21:23:27.448Z,1012
2023-03-02T21:28:33.587Z,1012
2023-03-02T21:33:39.666Z,1012
2023-03-02T21:38:45.723Z,1012
2023-03-02T21:43:51.931Z,1011.9
2023-03-02T21:48:57.973Z,1011.9
2023-03-02T21:54:04.024Z,1012
2023-03-02T21:59:10.158Z,1012.1
2023-03-02T22:04:16.242Z,1012.1
2023-03-02T22:09:22.322Z,1012
2023-03-02T22:14:28.444Z,1012.1
2023-03-02T22:19:34.558Z,1012
2023-03-02T22:24:39.628Z,1012.1
2023-03-02T22:29:45.772Z,1012
2023-03-02T22:34:51.859Z,1012
2023-03-02T22:39:58.068Z,1012
2023-03-02T22:45:04.065Z,1012
2023-03-02T22:50:10.129Z,1012
2023-03-02T22:55:15.324Z,1012.1
2023-03-02T23:00:21.355Z,1012.1
2023-03-02T23:05:27.461Z,1012.3
2023-03-02T23:10:33.541Z,1012.2
2023-03-02T23:15:39.651Z,1012.3
2023-03-02T23:20:45.746Z,1012.2
2023-03-02T23:25:51.964Z,1012.2
2023-03-02T23:30:57.947Z,1012.1
2023-03-02T23:36:04.068Z,1012
2023-03-02T23:41:10.291Z,1012
2023-03-02T23:46:16.238Z,1012
2023-03-02T23:51:22.344Z,1012
2023-03-02T23:56:28.421Z,1012
